Time;durP1;ratioP1;P1;durP2;ratioP2;P2;SDS_P1;SDS_P2;PMS_P1;PMS_P2;Temp;Humidity;BMP_temperature;BMP_pressure;BME280_temperature;BME280_humidity;BME280_pressure;Samples;Min_cycle;Max_cycle;Signal;HPM_P1;HPM_P2
2023/06/23 00:01:58;;;;;;;;;;;23.80;60.50;;;;;;5090983;28;19924;-60
2023/06/23 00:04:24;;;;;;;;;;;23.80;60.60;;;;;;5090992;28;19946;-61
2023/06/23 00:06:49;;;;;;;;;;;23.80;60.50;;;;;;5091974;28;19920;-61
2023/06/23 00:09:14;;;;;;;;;;;23.80;60.60;;;;;;5094085;28;19972;-61
2023/06/23 00:11:41;;;;;;;;;;;23.80;60.60;;;;;;5094807;28;19931;-61
2023/06/23 00:14:07;;;;;;;;;;;23.70;60.50;;;;;;5094569;28;19920;-61
2023/06/23 00:16:32;;;;;;;;;;;23.70;60.50;;;;;;5095767;28;20386;-61
2023/06/23 00:18:58;;;;;;;;;;;23.70;60.60;;;;;;5077842;28;19927;-61
2023/06/23 00:21:23;;;;;;;;;;;23.70;60.80;;;;;;5093929;28;20408;-60
2023/06/23 00:23:49;;;;;;;;;;;23.70;60.60;;;;;;5094242;28;19924;-61
2023/06/23 00:26:14;;;;;;;;;;;23.70;60.40;;;;;;5094467;28;19920;-61
2023/06/23 00:28:40;;;;;;;;;;;23.70;60.60;;;;;;5095447;28;19930;-61
2023/06/23 00:31:05;;;;;;;;;;;23.70;60.60;;;;;;5094155;28;19920;-60
2023/06/23 00:33:31;;;;;;;;;;;23.70;60.60;;;;;;5094460;28;19920;-60
2023/06/23 00:35:56;;;;;;;;;;;23.70;60.60;;;;;;5094359;28;19920;-61
2023/06/23 00:38:24;;;;;;;;;;;23.70;60.70;;;;;;5094234;28;20362;-61
2023/06/23 00:40:50;;;;;;;;;;;23.70;60.70;;;;;;5093901;28;19927;-61
2023/06/23 00:43:16;;;;;;;;;;;23.70;60.70;;;;;;5093972;28;20007;-61
2023/06/23 00:45:43;;;;;;;;;;;23.60;60.60;;;;;;5095123;28;19990;-61
2023/06/23 00:48:13;;;;;;;;;;;23.60;60.60;;;;;;5094237;28;19920;-61
2023/06/23 00:50:38;;;;;;;;;;;23.60;60.50;;;;;;5093802;28;19998;-61
2023/06/23 00:53:04;;;;;;;;;;;23.70;60.50;;;;;;5093942;28;20007;-61
2023/06/23 00:55:30;;;;;;;;;;;23.70;60.60;;;;;;5095292;28;20018;-61
2023/06/23 00:57:57;;;;;;;;;;;23.60;60.60;;;;;;5093607;28;19920;-61
2023/06/23 01:00:23;;;;;;;;;;;23.60;60.50;;;;;;5093962;28;19927;-61
2023/06/23 01:02:50;;;;;;;;;;;23.60;60.70;;;;;;5093589;28;19927;-61
2023/06/23 01:05:17;;;;;;;;;;;23.60;60.60;;;;;;5094875;28;19924;-61
2023/06/23 01:07:48;;;;;;;;;;;23.60;60.70;;;;;;5094638;28;20066;-61
2023/06/23 01:10:15;;;;;;;;;;;23.60;60.60;;;;;;5093767;28;19920;-61
2023/06/23 01:12:47;;;;;;;;;;;23.60;60.70;;;;;;5093362;28;20228;-61
2023/06/23 01:17:57;;;;;;;;;;;23.60;60.60;;;;;;5089824;28;19934;-62
2023/06/23 01:20:26;;;;;;;;;;;23.60;60.60;;;;;;5088554;28;19926;-61
2023/06/23 01:23:02;;;;;;;;;;;23.60;60.70;;;;;;5088794;28;19920;-61
2023/06/23 01:25:47;;;;;;;;;;;23.50;60.60;;;;;;5088471;28;20375;-61
2023/06/23 01:28:30;;;;;;;;;;;23.50;60.60;;;;;;5105074;28;19927;-61
2023/06/23 01:30:56;;;;;;;;;;;23.50;60.60;;;;;;5088669;28;19967;-61
2023/06/23 01:33:26;;;;;;;;;;;23.50;60.60;;;;;;5089820;28;20282;-61
2023/06/23 01:36:03;;;;;;;;;;;23.60;60.70;;;;;;5089678;28;19924;-61
2023/06/23 01:38:31;;;;;;;;;;;23.50;60.60;;;;;;5088218;28;19920;-61
2023/06/23 01:40:58;;;;;;;;;;;23.50;60.60;;;;;;5089598;28;20392;-61
2023/06/23 01:43:29;;;;;;;;;;;23.50;60.60;;;;;;5088292;28;19927;-61
2023/06/23 01:45:58;;;;;;;;;;;23.50;60.60;;;;;;5088160;28;19958;-61
2023/06/23 01:48:24;;;;;;;;;;;23.50;60.70;;;;;;5089663;28;20332;-61
2023/06/23 01:50:50;;;;;;;;;;;23.50;60.70;;;;;;5089425;28;19998;-61
2023/06/23 01:53:17;;;;;;;;;;;23.50;60.70;;;;;;5088457;28;19920;-61
2023/06/23 01:55:42;;;;;;;;;;;23.50;60.70;;;;;;5089216;28;19928;-60
2023/06/23 01:58:08;;;;;;;;;;;23.50;61.40;;;;;;5087760;28;19927;-61
2023/06/23 02:00:34;;;;;;;;;;;23.50;60.70;;;;;;5088170;28;20010;-61
2023/06/23 02:03:00;;;;;;;;;;;23.50;60.80;;;;;;5088093;28;20394;-61
2023/06/23 02:05:26;;;;;;;;;;;23.50;60.80;;;;;;5089002;28;20328;-61
2023/06/23 02:07:52;;;;;;;;;;;23.40;60.60;;;;;;5087751;28;19920;-61
2023/06/23 02:10:19;;;;;;;;;;;23.50;60.70;;;;;;5087626;28;19924;-61
2023/06/23 02:12:45;;;;;;;;;;;23.50;60.70;;;;;;5087867;28;19986;-61
2023/06/23 02:15:13;;;;;;;;;;;23.40;60.70;;;;;;5088862;28;20375;-61
2023/06/23 02:17:40;;;;;;;;;;;23.40;60.70;;;;;;5087382;28;19928;-61
2023/06/23 02:20:14;;;;;;;;;;;23.50;60.70;;;;;;5087361;28;19944;-61
2023/06/23 02:22:42;;;;;;;;;;;23.40;60.60;;;;;;5087799;28;19927;-61
2023/06/23 02:25:08;;;;;;;;;;;23.40;60.70;;;;;;5087259;28;19964;-61
2023/06/23 02:27:34;;;;;;;;;;;23.40;60.70;;;;;;5083284;28;20328;-61
2023/06/23 02:30:00;;;;;;;;;;;23.40;60.60;;;;;;5073778;28;20015;-61
2023/06/23 02:32:26;;;;;;;;;;;23.40;60.70;;;;;;5074112;28;19920;-61
2023/06/23 02:34:51;;;;;;;;;;;23.40;60.70;;;;;;5073611;28;19928;-61
2023/06/23 02:37:20;;;;;;;;;;;23.40;60.70;;;;;;5073616;28;19936;-61
2023/06/23 02:39:47;;;;;;;;;;;23.40;60.70;;;;;;5073594;28;19928;-61
2023/06/23 02:42:14;;;;;;;;;;;23.40;61.40;;;;;;5073501;28;20013;-61
2023/06/23 02:44:44;;;;;;;;;;;23.40;60.70;;;;;;5073825;28;19927;-60
2023/06/23 02:47:13;;;;;;;;;;;23.40;60.80;;;;;;5073806;28;19920;-61
2023/06/23 02:49:39;;;;;;;;;;;23.40;60.70;;;;;;5073710;28;19924;-61
2023/06/23 02:52:05;;;;;;;;;;;23.40;60.60;;;;;;5073678;28;20007;-61
2023/06/23 02:54:34;;;;;;;;;;;23.40;60.80;;;;;;5073481;28;19960;-60
2023/06/23 02:57:00;;;;;;;;;;;23.40;60.70;;;;;;5074430;28;20236;-61
2023/06/23 02:59:26;;;;;;;;;;;23.40;60.80;;;;;;5073607;28;19943;-61
2023/06/23 03:01:52;;;;;;;;;;;23.40;60.70;;;;;;5073140;28;19920;-61
2023/06/23 03:04:18;;;;;;;;;;;23.40;60.60;;;;;;5073521;28;19920;-61
2023/06/23 03:06:44;;;;;;;;;;;23.30;60.70;;;;;;5073483;28;20319;-61
2023/06/23 03:09:09;;;;;;;;;;;23.30;60.70;;;;;;5074480;28;20027;-61
2023/06/23 03:11:36;;;;;;;;;;;23.30;60.70;;;;;;5074292;28;20386;-61
2023/06/23 03:14:01;;;;;;;;;;;23.30;60.70;;;;;;5073055;28;20190;-61
2023/06/23 03:24:55;;;;;;;;;;;23.30;60.60;;;;;;5110194;27;19919;-61
2023/06/23 03:27:22;;;;;;;;;;;23.30;60.60;;;;;;5110271;28;20349;-61
2023/06/23 03:29:52;;;;;;;;;;;23.30;60.60;;;;;;5109233;28;19927;-61
2023/06/23 03:32:25;;;;;;;;;;;23.30;60.70;;;;;;5108850;28;19955;-61
2023/06/23 03:34:54;;;;;;;;;;;23.30;60.70;;;;;;5109095;28;19920;-61
2023/06/23 03:37:20;;;;;;;;;;;23.30;60.70;;;;;;5108978;28;19920;-61
2023/06/23 03:39:48;;;;;;;;;;;23.20;60.70;;;;;;5109035;28;20306;-60
2023/06/23 03:42:14;;;;;;;;;;;23.30;60.70;;;;;;5108589;28;19927;-61
2023/06/23 03:44:42;;;;;;;;;;;23.20;60.60;;;;;;5108586;28;19924;-61
2023/06/23 03:47:13;;;;;;;;;;;23.20;60.70;;;;;;5108780;28;20324;-61
2023/06/23 03:49:41;;;;;;;;;;;23.20;60.60;;;;;;5109755;28;20298;-60
2023/06/23 03:52:07;;;;;;;;;;;23.20;60.70;;;;;;5109659;28;20387;-60
2023/06/23 03:54:33;;;;;;;;;;;23.20;60.70;;;;;;5108774;28;20013;-61
2023/06/23 03:57:01;;;;;;;;;;;23.20;60.70;;;;;;5108327;28;19924;-61
2023/06/23 03:59:26;;;;;;;;;;;23.20;60.60;;;;;;5108351;28;20002;-61
2023/06/23 04:01:53;;;;;;;;;;;23.20;60.70;;;;;;5108380;28;20023;-60
2023/06/23 04:04:21;;;;;;;;;;;23.20;60.60;;;;;;5109373;28;19924;-61
2023/06/23 04:06:47;;;;;;;;;;;23.20;60.70;;;;;;5109743;28;19970;-61
2023/06/23 04:09:14;;;;;;;;;;;23.20;60.60;;;;;;5108435;28;19927;-61
2023/06/23 04:11:41;;;;;;;;;;;23.20;60.70;;;;;;5108114;28;19977;-60
2023/06/23 04:14:07;;;;;;;;;;;23.20;60.60;;;;;;5107995;28;20011;-61
2023/06/23 04:16:35;;;;;;;;;;;23.20;60.70;;;;;;5108360;28;19970;-61
2023/06/23 04:19:01;;;;;;;;;;;23.20;60.60;;;;;;5108008;28;20421;-61
2023/06/23 04:21:27;;;;;;;;;;;23.20;60.70;;;;;;5109473;28;19920;-61
2023/06/23 04:23:53;;;;;;;;;;;23.20;60.70;;;;;;5107540;28;19924;-60
2023/06/23 04:26:19;;;;;;;;;;;23.20;60.70;;;;;;5107914;28;19972;-61
2023/06/23 04:28:45;;;;;;;;;;;23.10;60.60;;;;;;5108028;28;20022;-61
2023/06/23 04:31:11;;;;;;;;;;;23.10;60.60;;;;;;5108134;28;19927;-61
2023/06/23 04:33:37;;;;;;;;;;;23.10;60.60;;;;;;5107619;28;19970;-61
2023/06/23 04:36:12;;;;;;;;;;;23.10;60.60;;;;;;5095502;28;19986;-61
2023/06/23 04:38:39;;;;;;;;;;;23.10;60.70;;;;;;5094304;28;20359;-60
2023/06/23 04:41:07;;;;;;;;;;;23.10;60.60;;;;;;5094025;28;19931;-61
2023/06/23 04:43:38;;;;;;;;;;;23.10;60.60;;;;;;5093843;28;19931;-60
2023/06/23 04:46:11;;;;;;;;;;;23.10;60.60;;;;;;5093883;28;20004;-61
2023/06/23 04:48:40;;;;;;;;;;;23.10;60.60;;;;;;5093758;28;19935;-60
2023/06/23 04:51:07;;;;;;;;;;;23.10;60.60;;;;;;5095114;28;20565;-60
2023/06/23 04:53:34;;;;;;;;;;;23.10;60.50;;;;;;5094103;28;19920;-61
2023/06/23 04:56:01;;;;;;;;;;;23.10;60.60;;;;;;5094964;28;19927;-61
2023/06/23 04:58:29;;;;;;;;;;;23.10;60.60;;;;;;5094022;28;19977;-61
2023/06/23 05:00:57;;;;;;;;;;;23.10;60.50;;;;;;5094769;28;19963;-61
2023/06/23 05:03:23;;;;;;;;;;;23.10;60.60;;;;;;5093524;28;20452;-61
2023/06/23 05:05:51;;;;;;;;;;;23.10;60.50;;;;;;5093832;28;19920;-61
2023/06/23 05:08:17;;;;;;;;;;;23.10;60.60;;;;;;5093546;28;19946;-60
2023/06/23 05:10:45;;;;;;;;;;;23.10;60.50;;;;;;5093461;28;19920;-61
2023/06/23 05:13:11;;;;;;;;;;;23.10;60.50;;;;;;5093706;28;19920;-61
2023/06/23 05:15:37;;;;;;;;;;;23.10;60.40;;;;;;5093248;28;19920;-61
2023/06/23 05:18:03;;;;;;;;;;;23.10;60.50;;;;;;5093636;28;19973;-61
2023/06/23 05:20:29;;;;;;;;;;;23.10;60.50;;;;;;5093171;28;19920;-61
2023/06/23 05:22:56;;;;;;;;;;;23.10;60.50;;;;;;5093148;28;19931;-60
2023/06/23 05:25:23;;;;;;;;;;;23.00;60.40;;;;;;5092998;28;19920;-60
2023/06/23 05:27:52;;;;;;;;;;;23.10;60.50;;;;;;5093409;28;19924;-61
2023/06/23 05:30:18;;;;;;;;;;;23.00;60.40;;;;;;5091831;28;19927;-63
2023/06/23 05:32:45;;;;;;;;;;;23.10;60.50;;;;;;5091204;28;19924;-63
2023/06/23 05:35:12;;;;;;;;;;;23.10;60.50;;;;;;5091569;28;20003;-63
2023/06/23 05:37:39;;;;;;;;;;;23.10;60.40;;;;;;5091475;28;20010;-62
2023/06/23 05:40:06;;;;;;;;;;;23.10;60.40;;;;;;5090137;28;19924;-61
2023/06/23 05:42:33;;;;;;;;;;;23.10;60.60;;;;;;5091336;28;19924;-61
2023/06/23 05:44:59;;;;;;;;;;;23.10;60.70;;;;;;5091061;28;19926;-61
2023/06/23 05:47:28;;;;;;;;;;;23.10;60.70;;;;;;5090361;28;20053;-61
2023/06/23 05:49:55;;;;;;;;;;;23.10;60.80;;;;;;5091866;28;19971;-62
2023/06/23 05:52:22;;;;;;;;;;;23.10;60.70;;;;;;5089749;28;19927;-61
2023/06/23 05:54:49;;;;;;;;;;;23.10;60.60;;;;;;5088995;28;19920;-61
2023/06/23 05:57:20;;;;;;;;;;;23.10;60.80;;;;;;5087940;28;19931;-61
2023/06/23 05:59:46;;;;;;;;;;;23.10;60.80;;;;;;5085817;28;19927;-61
2023/06/23 06:02:18;;;;;;;;;;;23.10;60.70;;;;;;5089760;28;20321;-62
2023/06/23 06:04:46;;;;;;;;;;;23.20;60.80;;;;;;5088570;28;19932;-62
2023/06/23 06:07:13;;;;;;;;;;;23.10;60.80;;;;;;5089391;28;19920;-63
2023/06/23 06:09:39;;;;;;;;;;;23.10;60.70;;;;;;5086889;28;19928;-63
2023/06/23 06:12:05;;;;;;;;;;;23.10;60.80;;;;;;5088668;28;19981;-61
2023/06/23 06:14:32;;;;;;;;;;;23.10;60.90;;;;;;5089163;28;19923;-61
2023/06/23 06:16:58;;;;;;;;;;;23.10;61.00;;;;;;5086920;28;19927;-61
2023/06/23 06:19:24;;;;;;;;;;;23.20;61.10;;;;;;5087668;28;19920;-62
2023/06/23 06:21:51;;;;;;;;;;;23.20;61.00;;;;;;5087416;28;19926;-62
2023/06/23 06:24:19;;;;;;;;;;;23.20;61.00;;;;;;5094741;28;19934;-62
2023/06/23 06:26:46;;;;;;;;;;;23.20;61.00;;;;;;5075162;28;20022;-62
2023/06/23 06:29:11;;;;;;;;;;;23.20;61.00;;;;;;5076380;28;19935;-61
2023/06/23 06:31:37;;;;;;;;;;;23.20;61.00;;;;;;5078357;28;19919;-62
2023/06/23 06:34:03;;;;;;;;;;;23.20;61.00;;;;;;5093388;28;19947;-61
2023/06/23 06:36:31;;;;;;;;;;;23.10;61.00;;;;;;5075931;28;20032;-62
2023/06/23 06:38:57;;;;;;;;;;;23.20;61.00;;;;;;5075619;28;19928;-60
2023/06/23 06:41:22;;;;;;;;;;;23.20;61.10;;;;;;5082650;28;19920;-61
2023/06/23 06:43:49;;;;;;;;;;;23.20;61.40;;;;;;5073763;28;20130;-61
2023/06/23 06:46:15;;;;;;;;;;;23.20;61.70;;;;;;5077323;28;20027;-62
2023/06/23 06:48:42;;;;;;;;;;;23.20;61.80;;;;;;5097571;28;19969;-58
2023/06/23 06:51:08;;;;;;;;;;;23.20;61.90;;;;;;5079354;28;20383;-59
2023/06/23 06:53:34;;;;;;;;;;;23.20;61.90;;;;;;5073125;28;19997;-59
2023/06/23 06:55:59;;;;;;;;;;;23.20;61.70;;;;;;5110785;27;19942;-60
2023/06/23 06:58:25;;;;;;;;;;;23.20;61.50;;;;;;5094785;28;20038;-59
2023/06/23 07:00:52;;;;;;;;;;;23.20;61.40;;;;;;5077975;28;20234;-59
2023/06/23 07:03:18;;;;;;;;;;;23.20;61.40;;;;;;5091523;28;20407;-61
2023/06/23 07:05:44;;;;;;;;;;;23.20;61.30;;;;;;5076638;28;20139;-59
2023/06/23 07:08:09;;;;;;;;;;;23.20;61.20;;;;;;5089577;28;20046;-59
2023/06/23 07:10:36;;;;;;;;;;;23.20;61.10;;;;;;5074689;28;20107;-58
2023/06/23 07:13:03;;;;;;;;;;;23.20;61.10;;;;;;5094358;28;19960;-62
2023/06/23 07:15:28;;;;;;;;;;;23.20;61.00;;;;;;5073828;28;19967;-61
2023/06/23 07:17:54;;;;;;;;;;;23.20;61.00;;;;;;5074070;28;19920;-61
2023/06/23 07:20:19;;;;;;;;;;;23.20;61.00;;;;;;5092363;28;19927;-60
2023/06/23 07:22:45;;;;;;;;;;;23.20;60.90;;;;;;5076191;28;19939;-61
2023/06/23 07:25:10;;;;;;;;;;;23.20;60.90;;;;;;5096772;28;19928;-59
2023/06/23 07:27:36;;;;;;;;;;;23.20;60.80;;;;;;5076201;28;20016;-61
2023/06/23 07:30:02;;;;;;;;;;;23.20;61.00;;;;;;5068643;28;20387;-62
2023/06/23 07:32:27;;;;;;;;;;;23.20;61.00;;;;;;5092657;28;20376;-60
2023/06/23 07:34:53;;;;;;;;;;;23.20;61.10;;;;;;5065824;28;19924;-61
2023/06/23 07:37:18;;;;;;;;;;;23.20;60.80;;;;;;5065844;28;19924;-60
2023/06/23 07:39:44;;;;;;;;;;;23.20;61.10;;;;;;5084222;28;19935;-60
2023/06/23 07:42:09;;;;;;;;;;;23.20;61.70;;;;;;5072024;28;20027;-59
2023/06/23 07:44:36;;;;;;;;;;;23.20;60.80;;;;;;5083582;28;19982;-60
2023/06/23 07:47:03;;;;;;;;;;;23.20;61.00;;;;;;5069283;28;19990;-60
2023/06/23 07:49:29;;;;;;;;;;;23.20;61.10;;;;;;5064473;28;19924;-58
2023/06/23 07:51:59;;;;;;;;;;;23.20;61.10;;;;;;5086144;28;20236;-59
2023/06/23 07:54:26;;;;;;;;;;;23.30;61.40;;;;;;5067439;28;19977;-58
2023/06/23 07:56:52;;;;;;;;;;;23.20;61.30;;;;;;5071380;28;20358;-59
2023/06/23 07:59:18;;;;;;;;;;;23.30;61.30;;;;;;5088329;28;20219;-60
2023/06/23 08:01:43;;;;;;;;;;;23.30;61.30;;;;;;5087421;28;20335;-58
2023/06/23 08:04:09;;;;;;;;;;;23.30;61.30;;;;;;5070668;28;19921;-58
2023/06/23 08:06:34;;;;;;;;;;;23.30;61.10;;;;;;5069366;28;20282;-60
2023/06/23 08:09:00;;;;;;;;;;;23.30;61.40;;;;;;5068153;28;19946;-58
2023/06/23 08:11:25;;;;;;;;;;;23.40;61.40;;;;;;5070399;28;20159;-58
2023/06/23 08:13:51;;;;;;;;;;;23.40;61.60;;;;;;5070510;28;20402;-59
2023/06/23 08:16:16;;;;;;;;;;;23.30;61.60;;;;;;5088436;28;20229;-60
2023/06/23 08:18:42;;;;;;;;;;;23.40;61.50;;;;;;5104082;27;20389;-59
2023/06/23 08:21:09;;;;;;;;;;;23.40;61.40;;;;;;5092065;27;19921;-60
2023/06/23 08:23:34;;;;;;;;;;;23.40;61.50;;;;;;5090833;28;20477;-59
2023/06/23 08:26:00;;;;;;;;;;;23.40;61.20;;;;;;5072674;28;19973;-59
2023/06/23 08:28:25;;;;;;;;;;;23.40;61.10;;;;;;5067471;28;19924;-59
2023/06/23 08:30:51;;;;;;;;;;;23.40;61.00;;;;;;5089771;28;20629;-59
2023/06/23 08:33:17;;;;;;;;;;;23.40;61.10;;;;;;5077214;28;19927;-62
2023/06/23 08:35:42;;;;;;;;;;;23.40;61.20;;;;;;5081128;28;19924;-62
2023/06/23 08:38:08;;;;;;;;;;;23.40;61.10;;;;;;5079150;28;19923;-62
2023/06/23 08:40:34;;;;;;;;;;;23.40;61.10;;;;;;5077397;28;20517;-62
2023/06/23 08:43:00;;;;;;;;;;;23.40;60.90;;;;;;5113407;27;19924;-62
2023/06/23 08:45:27;;;;;;;;;;;23.40;60.80;;;;;;5112582;27;20055;-62
2023/06/23 08:47:53;;;;;;;;;;;23.40;60.70;;;;;;5080793;28;19920;-61
2023/06/23 08:50:20;;;;;;;;;;;23.50;60.70;;;;;;5108799;27;19920;-62
2023/06/23 08:52:46;;;;;;;;;;;23.50;60.50;;;;;;5075832;28;19931;-62
2023/06/23 08:55:11;;;;;;;;;;;23.50;60.30;;;;;;5077436;28;20727;-63
2023/06/23 08:57:38;;;;;;;;;;;23.50;60.20;;;;;;5079131;28;20854;-61
2023/06/23 09:00:05;;;;;;;;;;;23.50;60.10;;;;;;5095210;28;20139;-60
2023/06/23 09:02:30;;;;;;;;;;;23.60;60.10;;;;;;5071232;28;20006;-61
2023/06/23 09:04:56;;;;;;;;;;;23.60;60.00;;;;;;5079437;28;19976;-61
2023/06/23 09:07:21;;;;;;;;;;;23.60;59.90;;;;;;5073724;28;20338;-60
2023/06/23 09:09:47;;;;;;;;;;;23.80;59.80;;;;;;5091916;28;20249;-61
2023/06/23 09:12:16;;;;;;;;;;;23.70;59.70;;;;;;5075027;28;19924;-62
2023/06/23 09:14:42;;;;;;;;;;;23.70;59.40;;;;;;5070443;28;20119;-61
2023/06/23 09:17:08;;;;;;;;;;;23.80;59.30;;;;;;5092908;28;20782;-61
2023/06/23 09:19:34;;;;;;;;;;;23.80;59.10;;;;;;5096267;27;19924;-62
2023/06/23 09:22:00;;;;;;;;;;;23.80;59.00;;;;;;5067954;28;19970;-62
2023/06/23 09:24:42;;;;;;;;;;;23.90;59.10;;;;;;5067329;28;20354;-62
2023/06/23 09:27:08;;;;;;;;;;;23.90;58.90;;;;;;5074888;27;20007;-62
2023/06/23 09:29:34;;;;;;;;;;;23.90;59.00;;;;;;5072343;28;19923;-62
2023/06/23 09:32:02;;;;;;;;;;;23.90;59.10;;;;;;5071087;28;19924;-62
2023/06/23 09:34:30;;;;;;;;;;;24.00;59.10;;;;;;5070286;28;19959;-64
2023/06/23 09:37:12;;;;;;;;;;;24.10;59.10;;;;;;5072075;28;20062;-61
2023/06/23 09:39:38;;;;;;;;;;;24.10;59.00;;;;;;5090609;28;20409;-61
2023/06/23 09:42:05;;;;;;;;;;;24.10;59.00;;;;;;5069169;28;19927;-61
2023/06/23 09:44:32;;;;;;;;;;;24.10;58.90;;;;;;5107376;27;19985;-61
2023/06/23 09:47:02;;;;;;;;;;;24.10;58.80;;;;;;5089387;28;20001;-60
2023/06/23 09:49:27;;;;;;;;;;;24.10;58.50;;;;;;5104243;27;19992;-59
2023/06/23 09:51:53;;;;;;;;;;;24.10;58.50;;;;;;5074097;28;19923;-59
2023/06/23 09:54:34;;;;;;;;;;;24.10;58.40;;;;;;5087229;28;19930;-60
2023/06/23 09:57:02;;;;;;;;;;;24.20;58.40;;;;;;5075057;28;20329;-59
2023/06/23 09:59:29;;;;;;;;;;;24.20;58.40;;;;;;5103770;27;19920;-59
2023/06/23 10:01:55;;;;;;;;;;;24.10;58.40;;;;;;5109485;27;20477;-60
2023/06/23 10:04:26;;;;;;;;;;;24.20;58.40;;;;;;5073565;28;19935;-59
2023/06/23 10:06:52;;;;;;;;;;;24.20;58.30;;;;;;5075189;28;20359;-59
2023/06/23 10:09:22;;;;;;;;;;;24.20;58.20;;;;;;5075763;28;19972;-60
2023/06/23 10:11:47;;;;;;;;;;;24.20;58.20;;;;;;5094894;27;20346;-60
2023/06/23 10:14:15;;;;;;;;;;;24.20;58.20;;;;;;5094052;28;19923;-61
2023/06/23 10:16:43;;;;;;;;;;;24.20;58.20;;;;;;5078406;28;20475;-60
2023/06/23 10:19:09;;;;;;;;;;;24.20;58.10;;;;;;5075391;28;19922;-60
2023/06/23 10:21:35;;;;;;;;;;;24.20;58.10;;;;;;5080068;28;20022;-61
2023/06/23 10:24:03;;;;;;;;;;;24.20;58.10;;;;;;5092112;28;19976;-60
2023/06/23 10:26:31;;;;;;;;;;;24.20;58.00;;;;;;5107357;27;20243;-61
2023/06/23 10:28:58;;;;;;;;;;;24.20;58.00;;;;;;5110836;27;19926;-61
2023/06/23 10:31:24;;;;;;;;;;;24.20;57.90;;;;;;5077292;28;20100;-61
2023/06/23 10:33:50;;;;;;;;;;;24.20;57.90;;;;;;5075125;28;19926;-60
2023/06/23 10:36:18;;;;;;;;;;;24.10;57.80;;;;;;5077453;28;19924;-61
2023/06/23 10:38:45;;;;;;;;;;;24.10;57.90;;;;;;5097179;28;20378;-61
2023/06/23 10:41:11;;;;;;;;;;;24.10;57.80;;;;;;5082750;28;19919;-61
2023/06/23 10:43:38;;;;;;;;;;;24.20;57.90;;;;;;5092321;28;19924;-61
2023/06/23 10:46:04;;;;;;;;;;;24.10;57.80;;;;;;5076937;28;19924;-61
2023/06/23 10:48:30;;;;;;;;;;;24.10;57.70;;;;;;5088786;28;19932;-61
2023/06/23 10:50:56;;;;;;;;;;;24.10;57.70;;;;;;5079722;28;19920;-60
2023/06/23 10:53:28;;;;;;;;;;;24.10;57.50;;;;;;5067779;28;19938;-60
2023/06/23 10:55:56;;;;;;;;;;;24.20;57.50;;;;;;5087712;28;20206;-61
2023/06/23 10:58:21;;;;;;;;;;;24.20;57.50;;;;;;5089583;28;19930;-61
2023/06/23 11:03:36;;;;;;;;;;;24.20;57.90;;;;;;5067761;28;19928;-62
2023/06/23 11:06:03;;;;;;;;;;;24.20;57.70;;;;;;5053709;28;20431;-61
2023/06/23 11:08:31;;;;;;;;;;;24.30;57.80;;;;;;5054956;28;20019;-61
2023/06/23 11:10:59;;;;;;;;;;;24.30;58.00;;;;;;5059852;28;20462;-61
2023/06/23 11:13:30;;;;;;;;;;;24.30;58.10;;;;;;5051204;28;19932;-60
2023/06/23 11:15:59;;;;;;;;;;;24.30;58.10;;;;;;5051194;28;19924;-59
2023/06/23 11:18:26;;;;;;;;;;;24.30;58.20;;;;;;5045273;28;19925;-60
2023/06/23 11:20:51;;;;;;;;;;;24.30;58.00;;;;;;5053737;28;20607;-60
2023/06/23 11:23:17;;;;;;;;;;;24.30;57.80;;;;;;5052027;28;20126;-60
2023/06/23 11:25:46;;;;;;;;;;;24.30;57.50;;;;;;5054731;28;20204;-60
2023/06/23 11:28:28;;;;;;;;;;;24.30;57.40;;;;;;5052308;28;20372;-61
2023/06/23 11:31:14;;;;;;;;;;;24.40;57.50;;;;;;5054086;28;20569;-61
2023/06/23 11:36:35;;;;;;;;;;;24.30;57.40;;;;;;5076422;27;19920;-59
2023/06/23 11:39:01;;;;;;;;;;;24.40;57.50;;;;;;5107862;28;19924;-60
2023/06/23 11:41:28;;;;;;;;;;;24.40;57.50;;;;;;5092336;28;20322;-60
2023/06/23 11:43:58;;;;;;;;;;;24.40;57.60;;;;;;5074608;28;19932;-60
2023/06/23 11:46:23;;;;;;;;;;;24.40;57.70;;;;;;5067920;28;19931;-60
2023/06/23 11:48:49;;;;;;;;;;;24.40;57.70;;;;;;5064919;28;19925;-60
2023/06/23 11:51:15;;;;;;;;;;;24.40;57.70;;;;;;5097373;28;20351;-61
2023/06/23 11:53:41;;;;;;;;;;;24.40;57.70;;;;;;5084616;28;20158;-60
2023/06/23 11:56:06;;;;;;;;;;;24.40;57.70;;;;;;5102587;28;19933;-59
2023/06/23 11:58:33;;;;;;;;;;;24.40;57.70;;;;;;5064738;28;20114;-60
2023/06/23 12:00:59;;;;;;;;;;;24.40;57.70;;;;;;5072832;28;20054;-60
2023/06/23 12:03:26;;;;;;;;;;;24.40;57.70;;;;;;5106686;28;20398;-60
2023/06/23 12:05:54;;;;;;;;;;;24.40;57.80;;;;;;5069511;28;20280;-61
2023/06/23 12:08:22;;;;;;;;;;;24.50;57.80;;;;;;5107834;28;19921;-59
2023/06/23 12:10:48;;;;;;;;;;;24.50;57.80;;;;;;5072211;28;19921;-60
2023/06/23 12:13:14;;;;;;;;;;;24.50;57.80;;;;;;5069723;28;19943;-61
2023/06/23 12:15:40;;;;;;;;;;;24.50;57.80;;;;;;5061501;28;20374;-60
2023/06/23 12:18:06;;;;;;;;;;;24.50;57.60;;;;;;5061626;28;19936;-61
2023/06/23 12:20:34;;;;;;;;;;;24.50;57.20;;;;;;5063608;28;20015;-61
2023/06/23 12:23:01;;;;;;;;;;;24.50;57.40;;;;;;5063056;28;20468;-60
2023/06/23 12:25:30;;;;;;;;;;;24.60;57.30;;;;;;5069500;28;19925;-60
2023/06/23 12:27:56;;;;;;;;;;;24.60;57.40;;;;;;5063957;28;19928;-61
2023/06/23 12:30:22;;;;;;;;;;;24.60;57.60;;;;;;5067013;28;20048;-60
2023/06/23 12:32:47;;;;;;;;;;;24.60;57.60;;;;;;5065062;28;19997;-61
2023/06/23 12:35:14;;;;;;;;;;;24.70;57.80;;;;;;5077788;28;20024;-60
2023/06/23 12:37:45;;;;;;;;;;;24.70;57.80;;;;;;5065143;28;19924;-61
2023/06/23 12:40:28;;;;;;;;;;;24.70;57.90;;;;;;5079135;28;20416;-61
2023/06/23 12:42:56;;;;;;;;;;;24.70;57.90;;;;;;5064240;28;20261;-62
2023/06/23 12:45:23;;;;;;;;;;;24.70;58.00;;;;;;5062661;28;19931;-61
2023/06/23 12:47:49;;;;;;;;;;;24.70;57.90;;;;;;5070815;28;19977;-61
2023/06/23 12:50:15;;;;;;;;;;;24.70;57.80;;;;;;5054145;28;20515;-61
2023/06/23 12:52:40;;;;;;;;;;;24.70;57.80;;;;;;5071787;28;19926;-61
2023/06/23 12:55:06;;;;;;;;;;;24.70;57.90;;;;;;5059477;28;20333;-61
2023/06/23 12:57:31;;;;;;;;;;;24.80;58.00;;;;;;5089485;28;20508;-60
2023/06/23 12:59:57;;;;;;;;;;;24.70;58.10;;;;;;5056296;28;19920;-62
2023/06/23 13:02:22;;;;;;;;;;;24.80;58.30;;;;;;5077772;28;20271;-63
2023/06/23 13:04:48;;;;;;;;;;;24.80;58.30;;;;;;5059029;28;19920;-64
2023/06/23 13:07:13;;;;;;;;;;;24.80;58.60;;;;;;5061412;28;19920;-63
2023/06/23 13:09:39;;;;;;;;;;;24.90;58.90;;;;;;5055355;28;20251;-63
2023/06/23 13:12:04;;;;;;;;;;;24.90;58.50;;;;;;5089928;28;20007;-63
2023/06/23 13:14:30;;;;;;;;;;;24.90;57.80;;;;;;5069219;28;19956;-63
2023/06/23 13:16:55;;;;;;;;;;;24.90;57.30;;;;;;5084860;28;19963;-61
2023/06/23 13:19:21;;;;;;;;;;;24.90;56.70;;;;;;5068585;28;19931;-61
2023/06/23 13:21:48;;;;;;;;;;;24.90;55.70;;;;;;5072249;28;19997;-62
2023/06/23 13:24:14;;;;;;;;;;;24.90;55.70;;;;;;5072047;28;19924;-61
2023/06/23 13:26:43;;;;;;;;;;;24.90;55.60;;;;;;5089712;28;19920;-62
2023/06/23 13:29:08;;;;;;;;;;;24.90;55.60;;;;;;5089327;28;20295;-61
2023/06/23 13:31:33;;;;;;;;;;;24.90;55.70;;;;;;5072126;28;19927;-61
2023/06/23 13:33:59;;;;;;;;;;;24.90;55.60;;;;;;5087979;28;19920;-61
2023/06/23 13:36:24;;;;;;;;;;;24.80;55.60;;;;;;5067294;28;19925;-61
2023/06/23 13:38:50;;;;;;;;;;;24.90;55.60;;;;;;5068937;28;19920;-62
2023/06/23 13:41:15;;;;;;;;;;;24.90;55.70;;;;;;5068716;28;19928;-62
2023/06/23 13:43:41;;;;;;;;;;;24.90;55.70;;;;;;5092784;28;20512;-62
2023/06/23 13:46:07;;;;;;;;;;;24.90;55.60;;;;;;5069868;28;19925;-61
2023/06/23 13:48:33;;;;;;;;;;;24.80;55.60;;;;;;5069940;28;19920;-62
2023/06/23 13:50:58;;;;;;;;;;;24.80;55.70;;;;;;5095873;28;19943;-62
2023/06/23 13:53:24;;;;;;;;;;;24.80;55.60;;;;;;5069770;28;19920;-64
2023/06/23 13:55:51;;;;;;;;;;;24.90;55.40;;;;;;5051269;28;20457;-62
2023/06/23 13:58:16;;;;;;;;;;;24.90;55.40;;;;;;5067330;28;19921;-61
2023/06/23 14:00:42;;;;;;;;;;;24.90;54.40;;;;;;5066939;28;19931;-61
2023/06/23 14:03:07;;;;;;;;;;;24.90;54.20;;;;;;5069375;28;19927;-60
2023/06/23 14:05:33;;;;;;;;;;;24.90;54.20;;;;;;5070040;28;20066;-60
2023/06/23 14:07:58;;;;;;;;;;;24.90;54.40;;;;;;5067641;28;19921;-61
2023/06/23 14:10:24;;;;;;;;;;;24.90;54.40;;;;;;5102599;28;19921;-61
2023/06/23 14:12:50;;;;;;;;;;;25.00;54.20;;;;;;5101552;28;20061;-62
2023/06/23 14:15:16;;;;;;;;;;;24.90;53.90;;;;;;5100562;28;19951;-60
2023/06/23 14:17:41;;;;;;;;;;;25.00;53.80;;;;;;5101270;28;20407;-60
2023/06/23 14:20:07;;;;;;;;;;;25.00;53.40;;;;;;5067340;28;19931;-60
2023/06/23 14:22:32;;;;;;;;;;;25.00;53.30;;;;;;5067710;28;20381;-60
2023/06/23 14:24:58;;;;;;;;;;;25.00;53.20;;;;;;5049853;28;20441;-60
2023/06/23 14:27:23;;;;;;;;;;;25.10;53.10;;;;;;5068056;28;19921;-60
2023/06/23 14:29:49;;;;;;;;;;;25.10;53.20;;;;;;5067221;28;20406;-60
2023/06/23 14:32:15;;;;;;;;;;;25.10;52.80;;;;;;5068319;28;19920;-60